createdAt,value
2022-08-09T00:01:55.380Z,73.60
2022-08-09T00:04:33.898Z,74.30
2022-08-09T00:07:04.093Z,74.70
2022-08-09T00:09:38.756Z,74.80
2022-08-09T00:12:07.646Z,73.80
2022-08-09T00:14:38.544Z,74.30
2022-08-09T00:17:07.492Z,74.20
2022-08-09T00:19:36.392Z,75.20
2022-08-09T00:22:05.234Z,75.60
2022-08-09T00:24:33.556Z,75.80
2022-08-09T00:27:02.053Z,77.20
2022-08-09T00:30:10.090Z,78.90
2022-08-09T00:32:26.548Z,79.70
2022-08-09T00:34:56.019Z,80.80
2022-08-09T00:37:24.147Z,80.90
2022-08-09T00:40:13.334Z,80.10
2022-08-09T00:44:13.225Z,80.70
2022-08-09T00:45:28.393Z,80.60
2022-08-09T00:47:57.783Z,81.10
2022-08-09T00:50:27.359Z,81.00
2022-08-09T00:52:55.290Z,81.10
2022-08-09T00:56:03.211Z,80.60
2022-08-09T00:58:14.640Z,80.40
2022-08-09T01:00:44.915Z,83.50
2022-08-09T01:03:23.251Z,83.50
2022-08-09T01:06:17.435Z,84.50
2022-08-09T01:08:55.654Z,84.50
2022-08-09T01:11:32.416Z,83.80
2022-08-09T01:14:04.796Z,84.30
2022-08-09T01:16:37.672Z,84.90
2022-08-09T01:19:42.769Z,84.90
2022-08-09T01:22:58.419Z,85.70
2022-08-09T01:25:52.789Z,87.70
2022-08-09T01:28:26.036Z,85.70
2022-08-09T01:30:59.009Z,86.30
2022-08-09T01:33:29.667Z,87.00
2022-08-09T01:36:03.880Z,88.20
2022-08-09T01:38:39.878Z,88.10
2022-08-09T01:41:15.929Z,89.60
2022-08-09T01:43:51.580Z,91.00
2022-08-09T01:46:24.901Z,91.30
2022-08-09T01:48:56.605Z,90.80
2022-08-09T01:51:26.685Z,91.60
2022-08-09T01:53:57.979Z,91.80
2022-08-09T01:56:27.558Z,91.00
2022-08-09T01:58:58.575Z,90.70
2022-08-09T02:01:57.737Z,90.70
2022-08-09T02:04:17.603Z,91.30
2022-08-09T02:07:03.993Z,91.80
2022-08-09T02:09:41.927Z,92.10
2022-08-09T02:12:13.551Z,92.40
2022-08-09T02:14:51.978Z,94.50
2022-08-09T02:17:59.318Z,95.30
2022-08-09T02:20:11.002Z,96.00
2022-08-09T02:22:46.431Z,97.30
2022-08-09T02:25:30.310Z,98.50
2022-08-09T02:28:05.145Z,99.60
2022-08-09T02:30:38.279Z,98.70
2022-08-09T02:33:14.377Z,98.50
2022-08-09T02:36:02.632Z,98.40
2022-08-09T02:38:37.058Z,97.90
2022-08-09T02:41:15.323Z,97.60
2022-08-09T02:43:54.285Z,99.00
2022-08-09T02:46:27.458Z,99.90
2022-08-09T02:48:59.862Z,99.90
2022-08-09T02:51:37.229Z,99.90
2022-08-09T02:54:12.330Z,99.90
2022-08-09T02:56:43.862Z,99.90
2022-08-09T02:59:26.323Z,99.90
2022-08-09T03:02:09.708Z,98.60
2022-08-09T03:04:41.647Z,98.20
2022-08-09T03:07:12.442Z,98.70
2022-08-09T03:09:56.574Z,98.40
2022-08-09T03:12:29.725Z,99.90
2022-08-09T03:14:58.218Z,99.90
2022-08-09T03:17:28.588Z,99.90
2022-08-09T03:20:03.041Z,99.10
2022-08-09T03:22:41.909Z,99.90
2022-08-09T03:25:26.798Z,99.90
2022-08-09T03:28:02.457Z,99.10
2022-08-09T03:30:33.341Z,99.90
2022-08-09T03:33:17.615Z,99.90
2022-08-09T03:36:15.498Z,99.90
2022-08-09T03:38:41.893Z,98.80
2022-08-09T03:41:15.348Z,97.60
2022-08-09T03:44:03.265Z,97.30
2022-08-09T03:46:33.621Z,96.20
2022-08-09T03:49:08.180Z,96.80
2022-08-09T03:51:55.340Z,96.10
2022-08-09T03:54:31.221Z,95.80
2022-08-09T03:57:02.157Z,96.10
2022-08-09T03:59:53.251Z,98.50
2022-08-09T04:02:26.530Z,99.70
2022-08-09T04:04:58.715Z,99.20
2022-08-09T04:07:33.643Z,99.00
2022-08-09T04:10:15.409Z,97.40
2022-08-09T04:12:50.071Z,98.80
2022-08-09T04:15:38.875Z,99.00
2022-08-09T04:18:08.499Z,99.90
2022-08-09T04:20:37.648Z,99.90
2022-08-09T04:23:09.713Z,99.90
2022-08-09T04:25:38.279Z,99.90
2022-08-09T04:28:06.962Z,99.90
2022-08-09T04:30:34.912Z,99.90
2022-08-09T04:33:02.875Z,99.90
2022-08-09T04:35:32.801Z,99.90
2022-08-09T04:38:03.542Z,99.90
2022-08-09T04:40:45.776Z,99.90
2022-08-09T04:43:14.140Z,99.90
2022-08-09T04:45:53.746Z,99.90
2022-08-09T04:48:23.905Z,99.90
2022-08-09T04:51:01.691Z,99.90
2022-08-09T04:53:31.529Z,99.90
2022-08-09T04:55:59.961Z,99.90
2022-08-09T04:58:29.831Z,99.90
2022-08-09T05:00:59.688Z,99.90
2022-08-09T05:03:40.590Z,99.90
2022-08-09T05:06:12.027Z,99.90
2022-08-09T05:08:59.871Z,99.90
2022-08-09T05:11:32.359Z,99.90
2022-08-09T05:14:05.785Z,99.90
2022-08-09T05:16:58.051Z,99.90
2022-08-09T05:19:25.800Z,99.90
2022-08-09T05:21:55.493Z,99.90
2022-08-09T05:24:25.713Z,99.90
2022-08-09T05:26:54.479Z,99.90
2022-08-09T05:29:24.080Z,99.90
2022-08-09T05:32:00.924Z,99.90
2022-08-09T05:34:30.983Z,99.90
2022-08-09T05:37:02.458Z,99.90
2022-08-09T05:39:42.625Z,99.90
2022-08-09T05:42:17.912Z,99.90
2022-08-09T05:44:51.742Z,99.90
2022-08-09T05:47:21.769Z,99.90
2022-08-09T05:50:29.979Z,99.90
2022-08-09T05:52:39.359Z,99.90
2022-08-09T05:55:12.885Z,99.90
2022-08-09T05:57:51.220Z,99.90
2022-08-09T06:00:25.967Z,99.90
2022-08-09T06:02:56.983Z,99.90
2022-08-09T06:05:50.087Z,99.90
2022-08-09T06:08:13.432Z,99.90
2022-08-09T06:10:48.354Z,99.90
2022-08-09T06:13:20.313Z,99.90
2022-08-09T06:15:51.321Z,99.90
2022-08-09T06:18:25.458Z,99.90
2022-08-09T06:20:56.982Z,99.90
2022-08-09T06:23:55.093Z,99.90
2022-08-09T06:26:20.885Z,99.90
2022-08-09T06:28:50.073Z,99.90
2022-08-09T06:31:30.660Z,99.90
2022-08-09T06:33:59.870Z,97.30
2022-08-09T06:36:29.767Z,99.90
2022-08-09T06:38:58.400Z,99.90
2022-08-09T06:42:01.241Z,99.90
2022-08-09T06:44:18.233Z,99.90
2022-08-09T06:46:48.078Z,99.90
2022-08-09T06:49:29.378Z,99.90
2022-08-09T06:52:06.352Z,98.80
2022-08-09T06:54:35.779Z,99.90
2022-08-09T06:57:05.011Z,99.90
2022-08-09T07:00:54.635Z,99.90
2022-08-09T07:02:30.810Z,99.90
2022-08-09T07:04:59.817Z,99.90
2022-08-09T07:08:00.932Z,99.90
2022-08-09T07:10:22.643Z,99.90
2022-08-09T07:12:59.264Z,98.30
2022-08-09T07:16:34.945Z,99.90
2022-08-09T07:18:15.303Z,99.90
2022-08-09T07:20:47.705Z,98.50
2022-08-09T07:23:19.000Z,99.20
2022-08-09T07:25:47.825Z,98.00
2022-08-09T07:28:28.115Z,99.20
2022-08-09T07:30:56.298Z,98.70
2022-08-09T07:33:24.284Z,98.60
2022-08-09T07:35:53.877Z,98.00
2022-08-09T07:38:23.669Z,96.70
2022-08-09T07:41:08.050Z,96.80
2022-08-09T07:43:41.290Z,96.10
2022-08-09T07:46:19.432Z,94.20
2022-08-09T07:48:58.756Z,93.10
2022-08-09T07:52:04.895Z,93.70
2022-08-09T07:54:19.172Z,93.10
2022-08-09T07:56:58.632Z,94.10
2022-08-09T07:59:34.370Z,92.70
2022-08-09T08:02:19.629Z,90.40
2022-08-09T08:04:48.857Z,86.40
2022-08-09T08:08:44.413Z,82.70
2022-08-09T08:10:08.840Z,81.20
2022-08-09T08:12:42.568Z,76.80
2022-08-09T08:15:14.121Z,73.80
2022-08-09T08:17:53.476Z,72.30
2022-08-09T08:20:28.809Z,70.20
2022-08-09T08:23:03.804Z,67.60
2022-08-09T08:25:46.619Z,66.80
2022-08-09T08:28:17.951Z,66.80
2022-08-09T08:30:55.255Z,65.00
2022-08-09T08:33:24.737Z,64.90
2022-08-09T08:35:58.916Z,63.10
2022-08-09T08:38:28.211Z,62.00
2022-08-09T08:40:57.256Z,62.00
2022-08-09T08:43:27.344Z,61.40
2022-08-09T08:46:09.908Z,61.00
2022-08-09T08:48:53.575Z,60.30
2022-08-09T08:51:22.842Z,59.40
2022-08-09T08:54:03.176Z,58.70
2022-08-09T08:56:33.743Z,58.10
2022-08-09T08:59:08.008Z,57.90
2022-08-09T09:01:52.874Z,57.60
2022-08-09T09:04:26.841Z,58.00
2022-08-09T09:06:58.249Z,57.60
2022-08-09T09:10:01.877Z,56.50
2022-08-09T09:12:17.343Z,56.50
2022-08-09T09:14:46.484Z,57.60
2022-08-09T09:17:16.778Z,56.80
2022-08-09T09:19:45.119Z,56.80
2022-08-09T09:22:16.147Z,56.70
2022-08-09T09:24:45.885Z,58.50
2022-08-09T09:28:04.228Z,58.70
2022-08-09T09:30:27.495Z,59.00
2022-08-09T09:33:15.283Z,59.30
2022-08-09T09:36:01.538Z,59.70
2022-08-09T09:38:42.182Z,59.90
2022-08-09T09:41:11.142Z,60.10
2022-08-09T09:43:41.471Z,60.30
2022-08-09T09:46:50.440Z,60.60
2022-08-09T09:49:32.157Z,60.60
2022-08-09T09:52:16.736Z,60.70
2022-08-09T09:55:16.778Z,60.90
2022-08-09T09:58:16.210Z,60.90
2022-08-09T10:00:55.205Z,61.10
2022-08-09T10:03:44.665Z,62.20
2022-08-09T10:06:26.037Z,62.90
2022-08-09T10:09:02.714Z,62.70
2022-08-09T10:11:59.415Z,63.00
2022-08-09T10:14:31.003Z,63.20
2022-08-09T10:17:40.276Z,63.20
2022-08-09T10:19:59.833Z,64.20
2022-08-09T10:22:37.315Z,64.20
2022-08-09T10:25:11.849Z,64.50
2022-08-09T10:27:45.306Z,64.60
2022-08-09T10:34:07.879Z,65.50
2022-08-09T10:36:02.171Z,65.60
2022-08-09T10:38:54.800Z,65.60
2022-08-09T10:41:20.536Z,66.00
2022-08-09T10:43:58.634Z,66.30
2022-08-09T10:47:00.876Z,66.40
2022-08-09T10:49:49.712Z,66.50
2022-08-09T10:52:36.490Z,66.60
2022-08-09T10:55:24.986Z,67.50
2022-08-09T10:57:55.922Z,66.80
2022-08-09T11:00:41.836Z,65.20
2022-08-09T11:03:50.024Z,65.60
2022-08-09T11:06:24.172Z,66.00
2022-08-09T11:08:53.417Z,66.00
2022-08-09T11:11:23.983Z,66.10
2022-08-09T11:14:28.180Z,66.50
2022-08-09T11:16:57.226Z,67.10
2022-08-09T11:20:10.636Z,68.30
2022-08-09T11:23:07.122Z,68.40
2022-08-09T11:25:55.596Z,68.90
2022-08-09T11:28:54.033Z,69.30
2022-08-09T11:31:49.413Z,69.00
2022-08-09T11:34:31.423Z,69.10
2022-08-09T11:37:01.039Z,68.90
2022-08-09T11:39:33.599Z,69.00
2022-08-09T11:42:14.619Z,68.90
2022-08-09T11:44:49.033Z,69.10
2022-08-09T11:47:17.009Z,69.20
2022-08-09T11:50:54.130Z,69.20
2022-08-09T11:53:57.671Z,68.90
2022-08-09T11:56:41.454Z,68.60
2022-08-09T11:59:11.634Z,66.10
2022-08-09T12:02:17.154Z,66.60
2022-08-09T12:04:37.238Z,66.80
2022-08-09T12:07:07.941Z,66.90
2022-08-09T12:09:37.331Z,67.40
2022-08-09T12:12:12.938Z,67.60
2022-08-09T12:15:07.281Z,67.60
2022-08-09T12:17:45.737Z,67.30
2022-08-09T12:20:21.812Z,67.30
2022-08-09T12:22:53.050Z,67.60
2022-08-09T12:25:35.969Z,67.60
2022-08-09T12:29:14.624Z,67.90
2022-08-09T12:30:58.540Z,68.00
2022-08-09T12:33:35.412Z,68.10
2022-08-09T12:36:27.478Z,68.30
2022-08-09T12:39:00.820Z,68.30
2022-08-09T12:41:36.275Z,68.20
2022-08-09T12:44:09.778Z,68.10
2022-08-09T12:46:40.171Z,68.40
2022-08-09T12:49:10.275Z,68.30
2022-08-09T12:52:00.582Z,68.20
2022-08-09T12:54:26.533Z,68.20
2022-08-09T12:56:54.711Z,68.20
2022-08-09T12:59:24.441Z,68.00
2022-08-09T13:02:09.614Z,67.80
2022-08-09T13:04:39.896Z,66.10
2022-08-09T13:07:13.415Z,57.50
2022-08-09T13:09:43.338Z,56.20
2022-08-09T13:12:22.225Z,56.30
2022-08-09T13:14:54.169Z,55.90
2022-08-09T13:18:03.365Z,56.00
2022-08-09T13:20:18.947Z,55.60
2022-08-09T13:23:02.096Z,54.90
2022-08-09T13:25:42.298Z,54.60
2022-08-09T13:28:18.811Z,54.20
2022-08-09T13:32:17.994Z,54.30
2022-08-09T13:33:54.406Z,54.70
2022-08-09T13:36:40.657Z,54.60
2022-08-09T13:41:51.427Z,55.20
2022-08-09T13:42:03.062Z,54.50
2022-08-09T13:44:32.479Z,56.00
2022-08-09T13:47:17.748Z,54.10
2022-08-09T13:49:56.459Z,54.20
2022-08-09T13:52:27.292Z,53.70
2022-08-09T13:54:59.737Z,52.80
2022-08-09T13:57:35.478Z,53.10
2022-08-09T14:00:08.077Z,55.00
2022-08-09T14:02:42.906Z,53.40
2022-08-09T14:05:59.081Z,57.10
2022-08-09T14:08:17.635Z,52.40
2022-08-09T14:10:50.276Z,52.60
2022-08-09T14:13:21.835Z,53.80
2022-08-09T14:16:10.466Z,52.90
2022-08-09T14:18:39.160Z,52.60
2022-08-09T14:21:17.466Z,52.00
2022-08-09T14:23:54.189Z,51.90
2022-08-09T14:26:30.576Z,52.70
2022-08-09T14:29:03.622Z,53.10
2022-08-09T14:31:49.552Z,53.50
2022-08-09T14:34:32.366Z,53.60
2022-08-09T14:37:02.742Z,53.80
2022-08-09T14:39:45.355Z,53.40
2022-08-09T14:42:30.565Z,53.40
2022-08-09T14:46:39.588Z,53.20
2022-08-09T14:47:57.146Z,53.00
2022-08-09T14:50:25.747Z,52.60
2022-08-09T14:52:54.933Z,52.70
2022-08-09T14:55:24.160Z,52.70
2022-08-09T14:57:52.736Z,52.00
2022-08-09T15:00:22.481Z,52.00
2022-08-09T15:02:51.806Z,52.10
2022-08-09T15:05:20.307Z,51.80
2022-08-09T15:07:56.565Z,51.60
2022-08-09T15:10:27.816Z,51.30
2022-08-09T15:12:56.045Z,53.10
2022-08-09T15:15:24.615Z,52.90
2022-08-09T15:17:56.982Z,51.50
2022-08-09T15:22:01.100Z,51.30
2022-08-09T15:24:01.343Z,52.40
2022-08-09T15:26:05.169Z,51.10
2022-08-09T15:28:37.088Z,51.10
2022-08-09T15:31:17.483Z,51.60
2022-08-09T15:34:17.126Z,51.40
2022-08-09T15:36:34.532Z,51.90
2022-08-09T15:39:02.386Z,51.80
2022-08-09T15:41:32.671Z,51.90
2022-08-09T15:44:01.776Z,52.00
2022-08-09T15:46:32.366Z,51.60
2022-08-09T15:49:21.815Z,51.40
2022-08-09T15:52:04.646Z,51.80
2022-08-09T15:54:44.624Z,52.20
2022-08-09T15:57:34.492Z,51.30
2022-08-09T16:00:07.435Z,51.50
2022-08-09T16:02:35.891Z,51.90
2022-08-09T16:05:06.739Z,52.00
2022-08-09T16:07:39.057Z,51.40
2022-08-09T16:10:11.049Z,51.90
2022-08-09T16:12:50.234Z,52.10
2022-08-09T16:16:10.202Z,52.00
2022-08-09T16:18:09.517Z,52.10
2022-08-09T16:20:38.367Z,52.30
2022-08-09T16:23:10.225Z,51.90
2022-08-09T16:25:40.314Z,51.90
2022-08-09T16:28:12.089Z,52.10
2022-08-09T16:30:44.578Z,52.30
2022-08-09T16:33:15.743Z,52.80
2022-08-09T16:35:57.980Z,52.20
2022-08-09T16:38:27.992Z,52.50
2022-08-09T16:40:57.958Z,52.70
2022-08-09T16:43:27.550Z,52.50
2022-08-09T16:45:55.535Z,52.40
2022-08-09T16:48:40.919Z,52.50
2022-08-09T16:51:13.890Z,53.50
2022-08-09T16:54:02.517Z,53.00
2022-08-09T16:56:31.012Z,52.90
2022-08-09T16:59:06.497Z,52.30
2022-08-09T17:01:38.815Z,53.10
2022-08-09T17:04:06.949Z,53.20
2022-08-09T17:08:41.174Z,52.90
2022-08-09T17:09:45.784Z,52.70
2022-08-09T17:12:11.271Z,52.60
2022-08-09T17:14:47.842Z,52.60
2022-08-09T17:17:27.157Z,53.10
2022-08-09T17:20:29.893Z,52.90
2022-08-09T17:23:10.510Z,53.20
2022-08-09T17:25:43.204Z,53.50
2022-08-09T17:28:11.117Z,54.10
2022-08-09T17:30:47.931Z,53.90
2022-08-09T17:33:22.221Z,54.00
2022-08-09T17:35:51.199Z,53.60
2022-08-09T17:38:32.386Z,53.40
2022-08-09T17:41:03.323Z,53.40
2022-08-09T17:43:36.975Z,54.70
2022-08-09T17:46:09.081Z,54.50
2022-08-09T17:48:52.232Z,54.50
2022-08-09T17:51:21.671Z,56.10
2022-08-09T17:53:52.364Z,55.30
2022-08-09T17:56:27.680Z,54.20
2022-08-09T17:58:58.225Z,54.50
2022-08-09T18:02:03.654Z,54.90
2022-08-09T18:04:15.879Z,54.30
2022-08-09T18:06:54.065Z,54.70
2022-08-09T18:09:24.740Z,55.00
2022-08-09T18:12:10.199Z,54.50
2022-08-09T18:14:49.709Z,54.30
2022-08-09T18:17:27.464Z,55.00
2022-08-09T18:21:00.487Z,54.70
2022-08-09T18:23:04.857Z,54.70
2022-08-09T18:25:50.914Z,55.40
2022-08-09T18:30:41.570Z,55.10
2022-08-09T18:31:10.039Z,55.30
2022-08-09T18:33:40.303Z,56.30
2022-08-09T18:36:14.374Z,55.40
2022-08-09T18:38:57.560Z,55.70
2022-08-09T18:41:28.741Z,56.10
2022-08-09T18:43:57.375Z,56.10
2022-08-09T18:46:47.908Z,56.10
2022-08-09T18:49:14.789Z,56.40
2022-08-09T18:51:55.106Z,56.70
2022-08-09T18:54:28.505Z,57.10
2022-08-09T18:57:05.741Z,56.80
2022-08-09T18:59:37.594Z,56.60
2022-08-09T19:02:16.337Z,56.40
2022-08-09T19:04:47.895Z,56.80
2022-08-09T19:07:32.787Z,57.10
2022-08-09T19:10:16.974Z,57.50
2022-08-09T19:12:50.844Z,57.10
2022-08-09T19:15:24.602Z,56.70
2022-08-09T19:17:55.167Z,57.10
2022-08-09T19:20:26.252Z,57.00
2022-08-09T19:23:02.519Z,56.90
2022-08-09T19:26:00.938Z,57.30
2022-08-09T19:28:21.418Z,57.80
2022-08-09T19:30:49.243Z,57.10
2022-08-09T19:33:24.542Z,57.40
2022-08-09T19:35:57.834Z,57.10
2022-08-09T19:38:27.999Z,56.90
2022-08-09T19:40:57.565Z,57.10
2022-08-09T19:43:58.187Z,58.40
2022-08-09T19:46:15.859Z,57.30
2022-08-09T19:49:00.452Z,58.70
2022-08-09T19:51:31.352Z,58.70
2022-08-09T19:53:59.505Z,57.70
2022-08-09T19:56:28.529Z,58.30
2022-08-09T19:59:39.393Z,58.30
2022-08-09T20:01:52.555Z,58.00
2022-08-09T20:04:37.361Z,59.00
2022-08-09T20:07:12.378Z,58.60
2022-08-09T20:09:49.106Z,58.90
2022-08-09T20:12:27.481Z,58.70
2022-08-09T20:16:31.805Z,58.40
2022-08-09T20:17:54.702Z,58.80
2022-08-09T20:20:24.752Z,59.20
2022-08-09T20:22:56.744Z,58.70
2022-08-09T20:25:25.253Z,59.30
2022-08-09T20:27:53.509Z,58.50
2022-08-09T20:30:24.141Z,59.60
2022-08-09T20:32:53.582Z,59.50
2022-08-09T20:35:21.721Z,59.40
2022-08-09T20:38:22.043Z,60.00
2022-08-09T20:40:41.123Z,60.00
2022-08-09T20:43:18.446Z,59.80
2022-08-09T20:46:00.567Z,60.20
2022-08-09T20:48:31.838Z,60.50
2022-08-09T20:51:00.278Z,60.90
2022-08-09T20:53:36.347Z,61.60
2022-08-09T20:56:09.324Z,61.60
2022-08-09T20:58:48.577Z,60.90
2022-08-09T21:01:35.466Z,60.90
2022-08-09T21:05:49.640Z,61.20
2022-08-09T21:06:53.435Z,61.60
2022-08-09T21:09:25.011Z,62.00
2022-08-09T21:14:42.000Z,62.00
2022-08-09T21:18:20.757Z,62.90
2022-08-09T21:20:16.088Z,62.90
2022-08-09T21:22:52.434Z,63.00
2022-08-09T21:25:39.589Z,63.40
2022-08-09T21:28:15.758Z,63.80
2022-08-09T21:30:44.247Z,63.70
2022-08-09T21:33:12.986Z,63.90
2022-08-09T21:35:51.128Z,64.00
2022-08-09T21:38:31.238Z,64.20
2022-08-09T21:40:59.952Z,64.60
2022-08-09T21:43:46.697Z,64.90
2022-08-09T21:46:17.292Z,65.20
2022-08-09T21:48:49.086Z,65.10
2022-08-09T21:51:23.961Z,65.40
2022-08-09T21:53:54.748Z,65.60
2022-08-09T21:56:42.887Z,65.10
2022-08-09T21:59:16.101Z,65.30
2022-08-09T22:02:00.864Z,65.50
2022-08-09T22:04:55.375Z,66.10
2022-08-09T22:07:35.256Z,66.40
2022-08-09T22:10:08.204Z,67.00
2022-08-09T22:12:38.758Z,67.80
2022-08-09T22:15:16.905Z,68.60
2022-08-09T22:17:46.126Z,69.00
2022-08-09T22:20:21.491Z,69.10
2022-08-09T22:22:50.577Z,69.50
2022-08-09T22:26:06.971Z,68.90
2022-08-09T22:28:07.140Z,69.50
2022-08-09T22:30:36.837Z,69.70
2022-08-09T22:33:09.654Z,70.30
2022-08-09T22:36:02.760Z,70.00
2022-08-09T22:38:26.335Z,69.30
2022-08-09T22:40:57.414Z,70.10
2022-08-09T22:44:03.430Z,71.10
2022-08-09T22:48:12.250Z,71.40
2022-08-09T22:49:10.040Z,71.60
2022-08-09T22:51:39.458Z,72.40
2022-08-09T22:54:12.310Z,73.10
2022-08-09T22:56:41.743Z,73.60
2022-08-09T22:59:55.795Z,73.30
2022-08-09T23:01:59.224Z,73.60
2022-08-09T23:04:32.819Z,74.00
2022-08-09T23:07:18.601Z,74.80
2022-08-09T23:10:07.003Z,73.80
2022-08-09T23:12:34.809Z,73.90
2022-08-09T23:15:02.657Z,73.60
2022-08-09T23:17:32.228Z,74.80
2022-08-09T23:20:07.040Z,75.00
2022-08-09T23:22:36.112Z,76.10
2022-08-09T23:25:04.783Z,76.80
2022-08-09T23:27:33.327Z,76.90
2022-08-09T23:30:01.322Z,77.40
2022-08-09T23:32:29.217Z,77.10
2022-08-09T23:34:58.412Z,76.90
2022-08-09T23:37:26.365Z,76.20
2022-08-09T23:39:54.240Z,75.70
2022-08-09T23:42:22.038Z,76.20
2022-08-09T23:44:49.874Z,77.70
2022-08-09T23:47:17.848Z,77.40
2022-08-09T23:49:45.644Z,77.60
2022-08-09T23:52:14.815Z,79.20
2022-08-09T23:54:44.431Z,79.40
2022-08-09T23:57:13.373Z,78.90
